Dar es Salaam, Tanzania

6:08 PM EAT on December 11, 2016 (GMT +0300)
Dar es Salaam International | | Change Station

Elev 180 ft 6.88 °S, 39.20 °E | Updated 1 hour ago

Mostly Cloudy
Mostly Cloudy
84 °F
Feels Like 94 °F
N
8
Wind Variable Wind from East

Today
High -- | Low -- °F
--% Chance of Precip.
Yesterday
High -- | Low -- °F
Precip. -- in
Pressure 29.86 in
Visibility 6.2 miles
Clouds Scattered Clouds 2400 ft
Few 2600 ft
Mostly Cloudy 8000 ft
Heat Index 94 °F
Dew Point 77 °F
Humidity 79%
Rainfall 0.00 in
Snow Depth Not available.
6:01 AM 6:32 PM
Waxing Gibbous, 92% visible
METAR HTDA 111400Z 08007KT 9999 SCT024 FEW026CB BKN080 29/25 Q1011 NOSIG
Pressure 29.86 in
Visibility 6.2 miles
Clouds Scattered Clouds 2400 ft
Few 2600 ft
Mostly Cloudy 8000 ft
Heat Index 94 °F
Dew Point 77 °F
Humidity 79%
Rainfall 0.00 in
Snow Depth Not available.
6:01 AM 6:32 PM
Waxing Gibbous, 92% visible
METAR HTDA 111400Z 08007KT 9999 SCT024 FEW026CB BKN080 29/25 Q1011 NOSIG

10-Day Weather Forecast

No radar image for this location.
×

Almanac

Astronomy

Dec. 11, 2016 Rise Set
Actual Time
Civil Twilight
Nautical Twilight
Astronomical Twilight
Moon
Length of Visible Light
Length of Day
Tomorrow will be .
, % of the Moon is Illuminated

Today's Extremes

Country Highs Country Lows

Community

WunderPhotos

Upload Photos

1,956,721 photos uploaded!

WunderBlog® & News

Nearby

Air Quality

  Air Quality AQ Index Pollutant
Not available.

Snow Depth

Station Depth Elevation

Earthquake Activity

City Distance Mag. Time & Date
Minimum magnitude displayed is 2.5.

Coastal Water Temperatures

Place Temperature

Stations

Nearby Weather Stations

Station Location Temp. Windchill Dew Point Humidity Wind Precip. Elev Updated Type